메인 페이지
METAR-TAF:

METAR-TAF

공항 :

Travis Air Force Base

페어필드, 캘리포니아, 미국

위도: 38-16N, 경도: 121-57W, 고도: 19m

현재 날씨관측

예보는 47분 전, 18:55시(UTC)에 발표되었습니다.
남서20kt
온도 21°C
습도 49%
기압 1012 hPa
시정: 16.1km
맑음

METAR: KSUU 131855Z AUTO 23020KT 10SM CLR 21/10 A2989 RMK AO2 SLP128 T02130095 $

시각: 12:42 (19:42 UTC)

예보

예보는 47분 전, 18:55시(UTC)에 발표되었습니다.
예보 대상 시간: 13일 19시부터 15일 01시까지 (UTC)
남서15kt, 순간 최대 풍속 25kt
시정 10km 이상
맑음
전환 중
14일 14시부터 14일 15시까지 (UTC)
남서10kt
시정 10km 이상
맑음

TAF: KSUU 131855Z 1319/1501 23015G25KT 9999 SKC QNH2982INS BECMG 1414/1415 23010KT 9999 SKC QNH2995INS TX27/1323Z TN11/1413Z

4,000개 이상의 공항 관측 자료 및 예보 (METAR 및 TAF 보고).

지도상에서 검색 가능한 기상관측소가 노란 점과 빨간 점으로 표시되어 있습니다.

기상관측소 명을 보려면 표시 위로 마우스를 이동하세요.

날씨 관측과 예보를 보려면 클릭하세요.

지도 변경 : 확대하려면 엑스 표시가 있는 녹색 버튼, 축소하려면 빼기 표시가 있는 녹색 버튼, 다음 페이지의 지도를 보려면 녹색 화살표를 클릭하세요.


METAR-TAF: